createdAt,value
2018-04-15T00:01:58.911Z,5.03
2018-04-15T00:04:26.501Z,5.30
2018-04-15T00:06:55.570Z,5.50
2018-04-15T00:09:23.204Z,4.93
2018-04-15T00:11:50.785Z,5.13
2018-04-15T00:14:18.360Z,5.30
2018-04-15T00:16:45.941Z,5.50
2018-04-15T00:19:13.558Z,5.43
2018-04-15T00:21:42.532Z,4.97
2018-04-15T00:24:10.147Z,5.00
2018-04-15T00:26:38.895Z,4.63
2018-04-15T00:29:06.504Z,4.30
2018-04-15T00:31:34.089Z,4.43
2018-04-15T00:34:01.637Z,4.40
2018-04-15T00:36:29.260Z,4.83
2018-04-15T00:38:56.967Z,4.57
2018-04-15T00:41:26.180Z,4.30
2018-04-15T00:43:54.544Z,4.90
2018-04-15T00:46:23.597Z,4.17
2018-04-15T00:48:51.214Z,4.30
2018-04-15T00:51:18.796Z,4.57
2018-04-15T00:53:58.336Z,4.17
2018-04-15T00:56:27.503Z,3.97
2018-04-15T00:58:55.093Z,4.60
2018-04-15T01:01:23.823Z,4.10
2018-04-15T01:03:52.204Z,4.67
2018-04-15T01:06:19.760Z,4.00
2018-04-15T01:08:47.327Z,3.57
2018-04-15T01:11:16.612Z,3.97
2018-04-15T01:13:44.999Z,3.60
2018-04-15T01:16:12.556Z,4.03
2018-04-15T01:18:40.883Z,3.57
2018-04-15T01:21:10.227Z,4.10
2018-04-15T01:23:38.605Z,3.40
2018-04-15T01:26:06.957Z,3.47
2018-04-15T01:28:34.665Z,3.47
2018-04-15T01:31:02.285Z,3.10
2018-04-15T01:33:30.023Z,3.40
2018-04-15T01:35:57.686Z,3.60
2018-04-15T01:38:25.356Z,3.13
2018-04-15T01:40:53.022Z,3.03
2018-04-15T01:43:20.665Z,3.50
2018-04-15T01:45:49.248Z,3.47
2018-04-15T01:48:16.910Z,3.00
2018-04-15T01:50:47.892Z,3.30
2018-04-15T01:53:16.246Z,2.80
2018-04-15T01:55:43.876Z,2.80
2018-04-15T01:58:11.514Z,3.10
2018-04-15T02:00:39.101Z,2.73
2018-04-15T02:03:06.758Z,2.80
2018-04-15T02:05:34.387Z,2.70
2018-04-15T02:08:02.001Z,3.50
2018-04-15T02:10:31.349Z,3.20
2018-04-15T02:12:58.978Z,2.87
2018-04-15T02:15:26.593Z,2.90
2018-04-15T02:17:54.257Z,3.03
2018-04-15T02:20:23.227Z,2.60
2018-04-15T02:22:50.880Z,2.93
2018-04-15T02:25:19.582Z,2.70
2018-04-15T02:27:47.136Z,3.03
2018-04-15T02:30:14.766Z,2.73
2018-04-15T02:32:42.313Z,3.00
2018-04-15T02:35:12.909Z,3.13
2018-04-15T02:37:40.576Z,2.80
2018-04-15T02:40:08.193Z,3.13
2018-04-15T02:42:35.759Z,2.73
2018-04-15T02:45:03.442Z,3.10
2018-04-15T02:47:32.347Z,2.70
2018-04-15T02:50:20.030Z,2.90
2018-04-15T02:52:49.114Z,2.53
2018-04-15T02:55:17.561Z,2.60
2018-04-15T02:57:45.131Z,2.80
2018-04-15T03:00:12.763Z,2.90
2018-04-15T03:02:40.463Z,2.80
2018-04-15T03:05:08.248Z,2.90
2018-04-15T03:07:35.918Z,3.10
2018-04-15T03:10:03.580Z,2.90
2018-04-15T03:12:33.341Z,3.00
2018-04-15T03:15:00.967Z,3.00
2018-04-15T03:17:28.644Z,2.80
2018-04-15T03:19:56.244Z,3.00
2018-04-15T03:22:23.933Z,3.20
2018-04-15T03:24:51.666Z,3.20
2018-04-15T03:27:20.124Z,3.47
2018-04-15T03:29:47.827Z,3.27
2018-04-15T03:32:17.021Z,2.93
2018-04-15T03:34:44.980Z,2.87
2018-04-15T03:37:12.701Z,2.87
2018-04-15T03:39:40.474Z,2.87
2018-04-15T03:42:13.608Z,3.43
2018-04-15T03:44:41.757Z,3.90
2018-04-15T03:47:09.617Z,3.43
2018-04-15T03:49:37.489Z,3.60
2018-04-15T03:52:06.754Z,3.40
2018-04-15T03:54:35.015Z,4.33
2018-04-15T03:57:09.718Z,3.83
2018-04-15T03:59:38.317Z,4.00
2018-04-15T04:02:09.441Z,3.90
2018-04-15T04:04:38.161Z,4.20
2018-04-15T04:07:14.074Z,4.30
2018-04-15T04:09:43.096Z,4.37
2018-04-15T04:12:11.203Z,4.43
2018-04-15T04:14:39.153Z,4.73
2018-04-15T04:17:07.315Z,4.83
2018-04-15T04:19:47.167Z,5.20
2018-04-15T04:22:29.793Z,4.87
2018-04-15T04:25:21.924Z,4.87
2018-04-15T04:27:49.702Z,4.90
2018-04-15T04:30:19.655Z,6.13
2018-04-15T04:32:47.511Z,4.97
2018-04-15T04:35:18.718Z,5.10
2018-04-15T04:40:31.593Z,5.30
2018-04-15T04:42:59.613Z,5.17
2018-04-15T04:45:30.012Z,5.00
2018-04-15T04:50:46.365Z,4.73
2018-04-15T04:53:16.127Z,5.47
2018-04-15T04:55:47.270Z,5.83
2018-04-15T04:58:20.864Z,6.20
2018-04-15T05:00:55.994Z,6.47
2018-04-15T05:03:24.076Z,7.33
2018-04-15T05:05:57.110Z,7.40
2018-04-15T05:08:26.628Z,5.97
2018-04-15T05:10:55.435Z,6.47
2018-04-15T05:13:27.193Z,6.43
2018-04-15T05:15:59.826Z,6.00
2018-04-15T05:18:30.602Z,6.47
2018-04-15T05:21:04.766Z,6.07
2018-04-15T05:23:33.190Z,5.77
2018-04-15T05:26:01.553Z,6.10
2018-04-15T05:28:30.868Z,6.47
2018-04-15T05:31:05.945Z,5.83
2018-04-15T05:33:34.299Z,6.60
2018-04-15T05:36:05.286Z,6.10
2018-04-15T05:38:33.287Z,5.53
2018-04-15T05:41:04.767Z,5.63
2018-04-15T05:43:32.624Z,5.27
2018-04-15T05:46:06.583Z,5.50
2018-04-15T05:48:34.945Z,4.20
2018-04-15T05:51:03.598Z,4.17
2018-04-15T05:53:32.114Z,4.60
2018-04-15T05:56:00.126Z,4.83
2018-04-15T05:58:28.066Z,4.67
2018-04-15T06:00:56.911Z,4.47
2018-04-15T06:03:25.445Z,4.43
2018-04-15T06:05:55.160Z,4.63
2018-04-15T06:08:22.876Z,5.87
2018-04-15T06:10:55.014Z,22.60
2018-04-15T06:13:23.507Z,7.73
2018-04-15T06:15:51.270Z,6.33
2018-04-15T06:18:19.141Z,8.40
2018-04-15T06:20:47.098Z,6.63
2018-04-15T06:23:14.944Z,4.00
2018-04-15T06:25:43.790Z,6.30
2018-04-15T06:28:11.509Z,5.13
2018-04-15T06:30:41.165Z,3.50
2018-04-15T06:33:08.902Z,3.77
2018-04-15T06:35:37.671Z,3.30
2018-04-15T06:38:06.173Z,3.70
2018-04-15T06:40:36.526Z,3.20
2018-04-15T06:43:04.213Z,2.97
2018-04-15T06:45:32.697Z,3.40
2018-04-15T06:48:00.323Z,3.30
2018-04-15T06:50:28.028Z,3.03
2018-04-15T06:52:56.683Z,3.00
2018-04-15T06:55:25.600Z,3.00
2018-04-15T06:57:53.293Z,2.50
2018-04-15T07:03:35.686Z,2.83
2018-04-15T07:06:06.248Z,2.37
2018-04-15T07:08:33.901Z,2.50
2018-04-15T07:11:03.813Z,2.73
2018-04-15T07:13:31.579Z,2.00
2018-04-15T07:16:01.117Z,1.70
2018-04-15T07:18:28.842Z,2.03
2018-04-15T07:21:02.528Z,1.93
2018-04-15T07:23:31.342Z,1.70
2018-04-15T07:25:58.983Z,1.67
2018-04-15T07:28:26.716Z,2.00
2018-04-15T07:30:55.528Z,1.93
2018-04-15T07:33:23.088Z,2.17
2018-04-15T07:35:52.546Z,2.10
2018-04-15T07:38:20.177Z,1.83
2018-04-15T07:40:49.794Z,2.00
2018-04-15T07:43:17.425Z,1.90
2018-04-15T07:45:47.589Z,1.80
2018-04-15T07:54:11.839Z,1.60
2018-04-15T07:56:39.373Z,1.40
2018-04-15T07:59:06.902Z,1.50
2018-04-15T08:01:34.434Z,1.33
2018-04-15T08:04:01.961Z,1.30
2018-04-15T08:06:29.484Z,1.17
2018-04-15T08:08:57.796Z,1.70
2018-04-15T08:11:25.344Z,1.57
2018-04-15T08:13:53.639Z,1.50
2018-04-15T08:16:21.178Z,1.40
2018-04-15T08:18:48.709Z,1.60
2018-04-15T08:21:16.233Z,1.80
2018-04-15T08:23:43.755Z,1.70
2018-04-15T08:26:11.298Z,1.77
2018-04-15T08:28:38.813Z,1.57
2018-04-15T08:31:06.352Z,1.40
2018-04-15T08:33:33.893Z,1.47
2018-04-15T08:36:02.199Z,1.23
2018-04-15T08:38:29.720Z,1.20
2018-04-15T08:40:57.256Z,1.10
2018-04-15T08:43:24.775Z,1.30
2018-04-15T08:45:52.291Z,1.37
2018-04-15T08:48:19.836Z,1.20
2018-04-15T08:50:47.362Z,1.30
2018-04-15T08:53:14.889Z,1.20
2018-04-15T08:55:44.032Z,1.10
2018-04-15T08:58:11.564Z,1.10
2018-04-15T09:00:39.955Z,1.03
2018-04-15T09:03:08.194Z,1.00
2018-04-15T09:05:35.728Z,1.10
2018-04-15T09:08:03.265Z,0.90
2018-04-15T09:10:30.783Z,0.93
2018-04-15T09:12:59.932Z,1.00
2018-04-15T09:15:27.448Z,1.00
2018-04-15T09:17:54.985Z,1.00
2018-04-15T09:20:22.519Z,0.90
2018-04-15T09:22:50.069Z,1.10
2018-04-15T09:25:17.583Z,1.00
2018-04-15T09:27:45.712Z,1.70
2018-04-15T09:30:14.018Z,1.67
2018-04-15T09:32:41.551Z,1.20
2018-04-15T09:35:09.283Z,1.47
2018-04-15T09:37:36.813Z,1.60
2018-04-15T09:40:06.096Z,1.33
2018-04-15T09:42:33.663Z,1.20
2018-04-15T09:45:01.255Z,1.13
2018-04-15T09:47:30.547Z,1.40
2018-04-15T09:49:58.180Z,1.00
2018-04-15T09:52:27.335Z,1.20
2018-04-15T09:54:55.023Z,1.00
2018-04-15T09:57:24.744Z,1.20
2018-04-15T09:59:53.089Z,1.10
2018-04-15T10:02:22.270Z,1.10
2018-04-15T10:04:49.865Z,1.20
2018-04-15T10:07:17.513Z,1.20
2018-04-15T10:09:46.002Z,1.23
2018-04-15T10:12:14.682Z,1.10
2018-04-15T10:14:42.237Z,1.20
2018-04-15T10:17:09.855Z,1.20
2018-04-15T10:19:37.464Z,1.10
2018-04-15T10:22:05.099Z,1.20
2018-04-15T10:24:32.733Z,1.17
2018-04-15T10:27:02.755Z,1.10
2018-04-15T10:29:32.334Z,1.10
2018-04-15T10:32:02.009Z,1.10
2018-04-15T10:34:29.594Z,1.17
2018-04-15T10:36:58.137Z,1.23
2018-04-15T10:39:25.733Z,1.10
2018-04-15T10:41:56.578Z,1.33
2018-04-15T10:44:25.147Z,1.47
2018-04-15T10:46:52.720Z,1.20
2018-04-15T10:49:20.490Z,1.30
2018-04-15T10:51:48.037Z,1.30
2018-04-15T10:54:15.597Z,1.10
2018-04-15T10:56:43.176Z,1.30
2018-04-15T10:59:11.529Z,1.40
2018-04-15T11:01:40.029Z,1.30
2018-04-15T11:04:07.672Z,1.23
2018-04-15T11:06:35.332Z,1.40
2018-04-15T11:09:02.897Z,1.40
2018-04-15T11:11:30.490Z,1.10
2018-04-15T11:13:58.549Z,1.07
2018-04-15T11:16:27.403Z,1.10
2018-04-15T11:18:54.948Z,1.30
2018-04-15T11:21:23.968Z,1.10
2018-04-15T11:23:51.694Z,1.50
2018-04-15T11:26:19.413Z,1.40
2018-04-15T11:28:46.991Z,1.50
2018-04-15T11:31:17.634Z,1.40
2018-04-15T11:33:45.962Z,1.23
2018-04-15T11:36:14.852Z,1.07
2018-04-15T11:38:43.232Z,1.20
2018-04-15T11:41:11.622Z,1.10
2018-04-15T11:43:39.177Z,1.20
2018-04-15T11:46:09.221Z,1.30
2018-04-15T11:48:36.849Z,1.20
2018-04-15T11:51:05.605Z,1.40
2018-04-15T11:53:33.246Z,1.10
2018-04-15T11:56:01.850Z,1.27
2018-04-15T11:58:29.422Z,1.70
2018-04-15T12:00:58.108Z,1.10
2018-04-15T12:03:25.703Z,1.30
2018-04-15T12:05:56.401Z,1.30
2018-04-15T12:08:23.960Z,1.20
2018-04-15T12:10:53.168Z,1.50
2018-04-15T12:13:20.737Z,1.23
2018-04-15T12:15:50.093Z,1.40
2018-04-15T12:18:17.710Z,1.30
2018-04-15T12:20:47.039Z,1.37
2018-04-15T12:23:14.648Z,1.30
2018-04-15T12:25:44.528Z,1.27
2018-04-15T12:28:12.117Z,1.50
2018-04-15T12:30:42.390Z,1.27
2018-04-15T12:33:10.011Z,1.50
2018-04-15T12:35:40.377Z,1.70
2018-04-15T12:38:08.474Z,1.60
2018-04-15T12:40:36.492Z,1.40
2018-04-15T12:43:04.155Z,3.30
2018-04-15T12:45:31.747Z,1.60
2018-04-15T12:47:59.300Z,1.50
2018-04-15T12:50:28.357Z,1.60
2018-04-15T12:52:59.208Z,1.57
2018-04-15T12:55:27.820Z,1.20
2018-04-15T12:57:55.409Z,1.50
2018-04-15T13:00:29.194Z,1.37
2018-04-15T13:02:56.751Z,1.50
2018-04-15T13:05:25.627Z,1.30
2018-04-15T13:07:53.274Z,1.47
2018-04-15T13:10:22.190Z,1.47
2018-04-15T13:12:49.915Z,1.37
2018-04-15T13:15:20.078Z,1.53
2018-04-15T13:17:47.723Z,1.40
2018-04-15T13:20:16.877Z,1.70
2018-04-15T13:22:44.457Z,2.03
2018-04-15T13:25:12.021Z,1.90
2018-04-15T13:27:39.621Z,1.70
2018-04-15T13:30:07.197Z,1.40
2018-04-15T13:32:34.798Z,1.90
2018-04-15T13:35:02.377Z,1.90
2018-04-15T13:37:31.686Z,1.47
2018-04-15T13:39:59.238Z,1.50
2018-04-15T13:42:28.133Z,1.50
2018-04-15T13:44:55.672Z,1.60
2018-04-15T13:47:24.502Z,1.50
2018-04-15T13:49:52.130Z,1.63
2018-04-15T13:52:20.707Z,1.50
2018-04-15T13:54:50.368Z,1.43
2018-04-15T13:57:20.591Z,1.63
2018-04-15T13:59:48.196Z,1.53
2018-04-15T14:02:17.472Z,1.33
2018-04-15T14:04:45.156Z,1.57
2018-04-15T14:07:12.776Z,1.33
2018-04-15T14:09:41.138Z,1.40
2018-04-15T14:12:10.505Z,1.40
2018-04-15T14:14:38.065Z,1.50
2018-04-15T14:17:06.742Z,1.40
2018-04-15T14:19:34.423Z,1.53
2018-04-15T14:22:03.212Z,1.50
2018-04-15T14:24:30.838Z,1.50
2018-04-15T14:26:59.614Z,1.50
2018-04-15T14:29:27.248Z,1.50
2018-04-15T14:31:56.180Z,1.90
2018-04-15T14:34:23.725Z,1.87
2018-04-15T14:36:52.324Z,1.57
2018-04-15T14:39:19.927Z,1.50
2018-04-15T14:41:49.378Z,1.50
2018-04-15T14:44:17.078Z,1.60
2018-04-15T14:46:46.028Z,1.50
2018-04-15T14:49:14.628Z,1.50
2018-04-15T14:51:43.997Z,1.70
2018-04-15T14:54:12.312Z,1.60
2018-04-15T14:56:41.346Z,1.70
2018-04-15T14:59:10.034Z,1.90
2018-04-15T15:01:38.473Z,1.70
2018-04-15T15:04:17.855Z,1.67
2018-04-15T15:06:47.340Z,2.03
2018-04-15T15:09:15.579Z,1.70
2018-04-15T15:11:44.889Z,1.60
2018-04-15T15:14:12.496Z,1.60
2018-04-15T15:16:42.318Z,1.67
2018-04-15T15:19:10.000Z,1.80
2018-04-15T15:21:42.314Z,2.10
2018-04-15T15:24:11.393Z,2.07
2018-04-15T15:26:38.965Z,2.23
2018-04-15T15:29:06.524Z,1.80
2018-04-15T15:31:41.154Z,1.90
2018-04-15T15:34:09.191Z,1.80
2018-04-15T15:36:44.184Z,2.10
2018-04-15T15:39:11.764Z,2.40
2018-04-15T15:41:39.320Z,2.00
2018-04-15T15:44:07.099Z,2.80
2018-04-15T15:46:34.673Z,2.13
2018-04-15T15:49:02.228Z,1.73
2018-04-15T15:51:30.836Z,2.53
2018-04-15T15:53:59.231Z,1.67
2018-04-15T15:56:28.701Z,1.80
2018-04-15T15:58:56.267Z,2.00
2018-04-15T16:01:23.818Z,1.70
2018-04-15T16:03:51.404Z,2.00
2018-04-15T16:06:19.607Z,1.90
2018-04-15T16:08:47.203Z,2.00
2018-04-15T16:11:15.853Z,2.07
2018-04-15T16:13:44.222Z,2.07
2018-04-15T16:16:11.837Z,1.90
2018-04-15T16:18:39.434Z,2.00
2018-04-15T16:21:07.004Z,2.50
2018-04-15T16:23:34.561Z,2.47
2018-04-15T16:26:03.051Z,2.07
2018-04-15T16:28:54.689Z,3.07
2018-04-15T16:31:35.641Z,2.37
2018-04-15T16:34:04.194Z,2.30
2018-04-15T16:36:32.455Z,2.03
2018-04-15T16:39:02.281Z,2.40
2018-04-15T16:41:34.054Z,1.90
2018-04-15T16:44:01.643Z,2.03
2018-04-15T16:46:29.298Z,1.90
2018-04-15T16:51:58.169Z,1.93
2018-04-15T16:54:27.856Z,2.23
2018-04-15T16:56:55.491Z,1.90
2018-04-15T16:59:23.138Z,2.90
2018-04-15T17:01:52.607Z,2.47
2018-04-15T17:04:20.230Z,2.33
2018-04-15T17:07:07.653Z,1.50
2018-04-15T17:09:36.470Z,1.70
2018-04-15T17:12:04.042Z,2.00
2018-04-15T17:14:31.914Z,1.70
2018-04-15T17:16:59.709Z,1.60
2018-04-15T17:19:37.127Z,2.00
2018-04-15T17:22:05.844Z,1.60
2018-04-15T17:24:36.460Z,1.43
2018-04-15T17:27:04.043Z,1.50
2018-04-15T17:29:31.670Z,1.30
2018-04-15T17:32:11.749Z,1.60
2018-04-15T17:34:46.649Z,1.20
2018-04-15T17:37:14.322Z,1.10
2018-04-15T17:39:49.151Z,1.30
2018-04-15T17:42:16.709Z,1.20
2018-04-15T17:44:47.266Z,1.30
2018-04-15T17:47:14.857Z,1.37
2018-04-15T17:49:42.548Z,1.13
2018-04-15T17:52:10.181Z,1.20
2018-04-15T17:54:39.209Z,1.50
2018-04-15T17:57:06.805Z,1.30
2018-04-15T17:59:35.418Z,1.40
2018-04-15T18:02:02.983Z,1.47
2018-04-15T18:04:32.291Z,1.10
2018-04-15T18:06:59.853Z,1.30
2018-04-15T18:09:28.558Z,1.20
2018-04-15T18:11:56.261Z,1.20
2018-04-15T18:14:23.867Z,1.10
2018-04-15T18:16:53.296Z,1.10
2018-04-15T18:19:21.068Z,1.13
2018-04-15T18:21:48.682Z,1.10
2018-04-15T18:24:16.241Z,1.20
2018-04-15T18:26:46.489Z,1.40
2018-04-15T18:29:14.073Z,1.13
2018-04-15T18:31:43.437Z,1.30
2018-04-15T18:34:11.487Z,1.30
2018-04-15T18:36:46.943Z,1.60
2018-04-15T18:39:14.455Z,4.90
2018-04-15T18:41:43.731Z,1.70
2018-04-15T18:44:11.308Z,1.50
2018-04-15T18:46:38.901Z,2.60
2018-04-15T18:49:06.713Z,1.90
2018-04-15T18:51:34.293Z,2.10
2018-04-15T18:54:02.140Z,2.90
2018-04-15T18:56:31.500Z,1.73
2018-04-15T18:58:59.893Z,1.47
2018-04-15T19:01:29.990Z,1.73
2018-04-15T19:03:57.663Z,1.23
2018-04-15T19:06:25.272Z,1.27
2018-04-15T19:08:52.872Z,1.30
2018-04-15T19:11:22.096Z,1.30
2018-04-15T19:13:49.766Z,1.57
2018-04-15T19:16:20.470Z,2.00
2018-04-15T19:18:48.037Z,7.97
2018-04-15T19:21:17.851Z,3.40
2018-04-15T19:23:46.241Z,1.70
2018-04-15T19:26:15.034Z,1.30
2018-04-15T19:28:42.688Z,1.50
2018-04-15T19:31:13.783Z,1.30
2018-04-15T19:33:41.482Z,3.20
2018-04-15T19:36:15.465Z,2.90
2018-04-15T19:38:45.074Z,1.50
2018-04-15T19:41:13.700Z,2.80
2018-04-15T19:43:41.381Z,9.30
2018-04-15T19:46:12.547Z,6.90
2018-04-15T19:48:40.908Z,3.80
2018-04-15T19:51:09.430Z,5.77
2018-04-15T19:53:40.418Z,2.50
2018-04-15T19:56:08.809Z,4.50
2018-04-15T19:58:36.654Z,1.80
2018-04-15T20:01:26.137Z,2.07
2018-04-15T20:03:53.695Z,2.40
2018-04-15T20:06:35.036Z,2.50
2018-04-15T20:09:03.353Z,2.90
2018-04-15T20:11:32.713Z,2.37
2018-04-15T20:14:02.067Z,2.83
2018-04-15T20:16:35.343Z,2.50
2018-04-15T20:19:02.913Z,2.10
2018-04-15T20:21:31.468Z,2.93
2018-04-15T20:23:59.046Z,2.70
2018-04-15T20:26:26.615Z,2.90
2018-04-15T20:28:54.193Z,2.63
2018-04-15T20:31:24.793Z,3.13
2018-04-15T20:33:52.382Z,2.00
2018-04-15T20:36:20.013Z,1.93
2018-04-15T20:38:47.576Z,1.90
2018-04-15T20:41:15.216Z,1.87
2018-04-15T20:43:42.808Z,1.77
2018-04-15T20:46:12.119Z,1.60
2018-04-15T20:48:39.781Z,1.90
2018-04-15T20:51:09.073Z,1.80
2018-04-15T20:53:36.673Z,2.50
2018-04-15T20:56:04.226Z,1.87
2018-04-15T20:58:31.839Z,4.53
2018-04-15T21:00:59.393Z,2.43
2018-04-15T21:03:26.969Z,2.40
2018-04-15T21:05:55.520Z,2.40
2018-04-15T21:08:23.123Z,2.80
2018-04-15T21:10:52.310Z,2.83
2018-04-15T21:13:19.903Z,2.70
2018-04-15T21:15:48.401Z,2.57
2018-04-15T21:18:16.722Z,2.30
2018-04-15T21:20:44.283Z,2.83
2018-04-15T21:23:11.841Z,2.60
2018-04-15T21:25:39.387Z,2.67
2018-04-15T21:28:06.951Z,2.67
2018-04-15T21:30:35.630Z,2.50
2018-04-15T21:33:03.200Z,2.33
2018-04-15T21:35:32.375Z,2.23
2018-04-15T21:37:59.941Z,2.87
2018-04-15T21:40:28.637Z,2.57
2018-04-15T21:42:56.206Z,2.20
2018-04-15T21:45:23.806Z,2.73
2018-04-15T21:47:52.145Z,1.90
2018-04-15T21:50:21.347Z,1.80
2018-04-15T21:52:48.925Z,1.80
2018-04-15T21:55:16.490Z,2.03
2018-04-15T21:57:44.853Z,2.20
2018-04-15T22:00:13.225Z,1.93
2018-04-15T22:02:40.865Z,2.17
2018-04-15T22:05:09.011Z,1.90
2018-04-15T22:07:36.565Z,2.13
2018-04-15T22:10:04.163Z,1.80
2018-04-15T22:12:31.805Z,2.13
2018-04-15T22:15:00.152Z,2.03
2018-04-15T22:17:27.710Z,2.10
2018-04-15T22:19:56.072Z,1.90
2018-04-15T22:22:23.641Z,1.90
2018-04-15T22:24:51.230Z,2.10
2018-04-15T22:27:18.797Z,2.03
2018-04-15T22:29:46.351Z,2.20
2018-04-15T22:32:13.892Z,2.10
2018-04-15T22:34:41.459Z,2.00
2018-04-15T22:37:09.015Z,1.90
2018-04-15T22:39:37.572Z,2.00
2018-04-15T22:42:07.128Z,1.90
2018-04-15T22:44:34.753Z,1.97
2018-04-15T22:47:02.369Z,2.23
2018-04-15T22:49:29.922Z,2.07
2018-04-15T22:51:57.495Z,2.30
2018-04-15T22:54:25.056Z,1.90
2018-04-15T22:56:52.632Z,2.00
2018-04-15T22:59:20.960Z,2.03
2018-04-15T23:01:48.541Z,2.20
2018-04-15T23:04:16.138Z,1.83
2018-04-15T23:06:46.087Z,2.30
2018-04-15T23:09:13.635Z,2.20
2018-04-15T23:11:42.618Z,2.10
2018-04-15T23:14:10.223Z,1.97
2018-04-15T23:16:37.816Z,3.23
2018-04-15T23:19:05.392Z,2.60
2018-04-15T23:21:32.965Z,2.83
2018-04-15T23:24:00.573Z,2.10
2018-04-15T23:26:29.673Z,2.40
2018-04-15T23:28:57.243Z,2.27
2018-04-15T23:31:26.231Z,2.37
2018-04-15T23:33:53.797Z,2.20
2018-04-15T23:36:22.161Z,2.50
2018-04-15T23:38:49.706Z,2.20
2018-04-15T23:41:18.929Z,2.67
2018-04-15T23:43:47.271Z,2.60
2018-04-15T23:46:15.994Z,2.20
2018-04-15T23:48:43.562Z,2.57
2018-04-15T23:51:11.130Z,2.43
2018-04-15T23:53:39.490Z,2.40
2018-04-15T23:56:08.609Z,2.60
2018-04-15T23:58:36.190Z,2.43
